Time;durP1;ratioP1;P1;durP2;ratioP2;P2;SDS_P1;SDS_P2;PMS_P1;PMS_P2;Temp;Humidity;BMP_temperature;BMP_pressure;BME280_temperature;BME280_humidity;BME280_pressure;Samples;Min_cycle;Max_cycle;Signal;HPM_P1;HPM_P2
2022/07/18 00:01:13;;;;;;;1.67;1.23;;;25.60;61.80;;;;;;5076368;28;20854;-86
2022/07/18 00:03:40;;;;;;;1.40;1.20;;;25.60;61.80;;;;;;5076236;28;21024;-86
2022/07/18 00:06:07;;;;;;;1.80;1.70;;;25.50;61.70;;;;;;5076063;28;20437;-86
2022/07/18 00:08:34;;;;;;;1.60;1.37;;;25.60;61.80;;;;;;5075642;28;20529;-83
2022/07/18 00:11:01;;;;;;;1.20;1.10;;;25.60;61.90;;;;;;5078548;28;20520;-88
2022/07/18 00:13:27;;;;;;;1.30;1.10;;;25.60;62.80;;;;;;5078060;28;20441;-87
2022/07/18 00:15:54;;;;;;;2.40;1.20;;;25.60;62.00;;;;;;5075913;28;20531;-86
2022/07/18 00:18:22;;;;;;;1.60;1.40;;;25.60;62.10;;;;;;5075920;28;20457;-88
2022/07/18 00:20:49;;;;;;;1.20;1.00;;;25.60;62.20;;;;;;5075890;28;20527;-86
2022/07/18 00:23:16;;;;;;;1.63;1.20;;;25.60;62.10;;;;;;5075855;28;20528;-87
2022/07/18 00:25:43;;;;;;;1.23;1.13;;;25.50;62.00;;;;;;5075848;28;20451;-86
2022/07/18 00:28:11;;;;;;;1.37;1.23;;;25.60;63.00;;;;;;5075683;28;20536;-86
2022/07/18 00:30:38;;;;;;;2.20;1.30;;;25.60;63.00;;;;;;5075891;28;20491;-86
2022/07/18 00:33:05;;;;;;;1.23;1.13;;;25.60;62.20;;;;;;5075396;28;20443;-85
2022/07/18 00:35:33;;;;;;;1.83;1.20;;;25.60;62.20;;;;;;5074922;28;20528;-87
2022/07/18 00:38:01;;;;;;;1.40;1.27;;;25.60;62.20;;;;;;5075858;28;20441;-87
2022/07/18 00:40:28;;;;;;;1.47;1.20;;;25.60;62.20;;;;;;5075396;28;20487;-86
2022/07/18 00:42:55;;;;;;;1.40;1.30;;;25.60;62.20;;;;;;5075444;28;20524;-85
2022/07/18 00:45:22;;;;;;;1.63;1.53;;;25.60;62.30;;;;;;5075073;28;20531;-87
2022/07/18 00:47:51;;;;;;;1.40;1.30;;;25.60;62.30;;;;;;5075196;28;20544;-86
2022/07/18 00:50:18;;;;;;;2.53;1.20;;;25.60;62.30;;;;;;5075410;28;20444;-86
2022/07/18 00:52:47;;;;;;;1.40;1.20;;;25.60;62.40;;;;;;5074635;28;20551;-87
2022/07/18 00:55:14;;;;;;;1.37;1.27;;;25.60;62.40;;;;;;5075375;28;20471;-86
2022/07/18 00:57:42;;;;;;;1.30;1.20;;;25.60;62.40;;;;;;5075204;28;20432;-85
2022/07/18 01:02:59;;;;;;;1.33;1.23;;;25.60;62.40;;;;;;5055015;28;20953;-87
2022/07/18 01:05:28;;;;;;;1.50;1.40;;;25.50;62.30;;;;;;5055106;28;20480;-86
2022/07/18 01:07:56;;;;;;;1.10;1.00;;;25.50;62.30;;;;;;5055385;28;20445;-85
2022/07/18 01:10:23;;;;;;;1.50;1.27;;;25.50;62.30;;;;;;5055313;28;20527;-85
2022/07/18 01:12:50;;;;;;;1.40;1.27;;;25.50;62.30;;;;;;5055273;28;20504;-87
2022/07/18 01:15:17;;;;;;;2.03;1.43;;;25.50;62.30;;;;;;5055020;28;20470;-87
2022/07/18 01:17:44;;;;;;;1.50;1.40;;;25.60;62.40;;;;;;5054915;28;20489;-85
2022/07/18 01:20:12;;;;;;;1.43;1.33;;;25.50;62.30;;;;;;5055141;28;20499;-86
2022/07/18 01:22:41;;;;;;;1.20;1.10;;;25.50;62.30;;;;;;5054654;28;20442;-86
2022/07/18 01:25:09;;;;;;;1.27;1.17;;;25.50;62.30;;;;;;5054528;28;20549;-86
2022/07/18 01:27:36;;;;;;;1.80;1.30;;;25.50;62.30;;;;;;5054534;28;20536;-86
2022/07/18 01:30:05;;;;;;;1.50;1.40;;;25.60;62.40;;;;;;5066881;28;20476;-86
2022/07/18 01:32:32;;;;;;;1.23;1.13;;;25.60;62.30;;;;;;5074361;28;20441;-86
2022/07/18 01:34:59;;;;;;;1.50;1.30;;;25.50;62.20;;;;;;5074722;28;20483;-87
2022/07/18 01:37:26;;;;;;;1.33;1.23;;;25.50;62.20;;;;;;5074351;28;20943;-85
2022/07/18 01:39:54;;;;;;;1.30;1.20;;;25.50;62.20;;;;;;5074367;28;20581;-86
2022/07/18 01:42:21;;;;;;;1.43;1.33;;;25.50;62.20;;;;;;5074108;28;20492;-87
2022/07/18 01:44:49;;;;;;;1.50;1.40;;;25.60;62.30;;;;;;5074184;28;20445;-85
2022/07/18 01:47:16;;;;;;;1.40;1.30;;;25.50;62.20;;;;;;5073865;28;20530;-86
2022/07/18 01:49:43;;;;;;;1.50;1.27;;;25.50;62.20;;;;;;5074335;28;20805;-86
2022/07/18 01:52:11;;;;;;;1.30;1.20;;;25.50;62.20;;;;;;5073980;28;20519;-86
2022/07/18 01:54:38;;;;;;;2.17;1.07;;;25.50;62.30;;;;;;5074422;28;20464;-86
2022/07/18 01:57:08;;;;;;;1.50;1.40;;;25.50;62.30;;;;;;5074354;28;20488;-86
2022/07/18 01:59:36;;;;;;;1.40;1.00;;;25.50;62.20;;;;;;5073676;28;20556;-86
2022/07/18 02:02:03;;;;;;;1.33;1.23;;;25.50;62.20;;;;;;5073935;28;20527;-86
2022/07/18 02:07:11;;;;;;;2.13;1.50;;;25.50;62.30;;;;;;5064893;28;20437;-87
2022/07/18 02:09:38;;;;;;;1.20;1.10;;;25.50;62.20;;;;;;5073819;28;20769;-87
2022/07/18 02:12:07;;;;;;;1.50;1.40;;;25.50;62.20;;;;;;5074144;28;20437;-86
2022/07/18 02:14:34;;;;;;;1.13;1.00;;;25.50;62.10;;;;;;5074069;28;20516;-87
2022/07/18 02:17:01;;;;;;;1.67;1.57;;;25.50;62.20;;;;;;5074203;28;20460;-88
2022/07/18 02:19:28;;;;;;;1.60;1.20;;;25.50;62.20;;;;;;5073394;28;20523;-87
2022/07/18 02:21:54;;;;;;;1.50;1.40;;;25.50;62.30;;;;;;5073977;28;20535;-86
2022/07/18 02:24:21;;;;;;;1.30;1.10;;;25.50;62.20;;;;;;5073544;28;20448;-87
2022/07/18 02:26:48;;;;;;;1.37;1.17;;;25.50;62.20;;;;;;5073972;28;20539;-87
2022/07/18 02:29:16;;;;;;;1.37;1.20;;;25.50;62.30;;;;;;5073938;28;20532;-85
2022/07/18 02:31:43;;;;;;;1.83;1.20;;;25.50;62.30;;;;;;5073738;28;20441;-85
2022/07/18 02:34:10;;;;;;;1.40;1.13;;;25.50;62.20;;;;;;5073451;28;20441;-86
2022/07/18 02:36:37;;;;;;;1.30;1.00;;;25.50;62.20;;;;;;5073372;28;20971;-87
2022/07/18 02:39:04;;;;;;;1.40;1.20;;;25.50;62.30;;;;;;5073624;28;20536;-87
2022/07/18 02:41:31;;;;;;;1.13;1.00;;;25.50;62.10;;;;;;5073518;28;20476;-86
2022/07/18 02:43:58;;;;;;;1.50;1.10;;;25.50;62.10;;;;;;5053325;28;20929;-88
2022/07/18 02:46:26;;;;;;;1.40;1.30;;;25.50;62.20;;;;;;5071699;28;20425;-87
2022/07/18 02:48:54;;;;;;;1.30;1.20;;;25.50;62.20;;;;;;5095257;28;20445;-85
2022/07/18 02:51:21;;;;;;;1.10;1.00;;;25.50;62.10;;;;;;5097839;28;20460;-86
2022/07/18 02:53:48;;;;;;;1.20;1.10;;;25.50;62.20;;;;;;5080397;28;20437;-85
2022/07/18 02:56:14;;;;;;;1.60;1.40;;;25.50;62.20;;;;;;5074377;28;20468;-85
2022/07/18 02:58:41;;;;;;;1.10;1.00;;;25.50;62.20;;;;;;5077536;28;20464;-87
2022/07/18 03:01:08;;;;;;;1.20;1.10;;;25.50;62.30;;;;;;5077563;28;20571;-85
2022/07/18 03:03:37;;;;;;;1.50;1.10;;;25.50;62.20;;;;;;5077477;28;20481;-86
2022/07/18 03:06:04;;;;;;;1.20;1.10;;;25.50;62.30;;;;;;5079095;28;20480;-87
2022/07/18 03:08:30;;;;;;;1.40;1.20;;;25.50;62.30;;;;;;5079178;28;20777;-85
2022/07/18 03:10:57;;;;;;;1.60;1.20;;;25.50;63.20;;;;;;5077774;28;20440;-86
2022/07/18 03:13:24;;;;;;;1.30;1.20;;;25.50;62.40;;;;;;5077038;28;20445;-85
2022/07/18 03:15:51;;;;;;;1.37;1.27;;;25.50;62.50;;;;;;5076634;28;20444;-85
2022/07/18 03:18:18;;;;;;;1.40;1.30;;;25.50;62.30;;;;;;5076951;28;20461;-86
2022/07/18 03:20:46;;;;;;;1.43;1.33;;;25.50;62.50;;;;;;5076894;28;20516;-85
2022/07/18 03:23:13;;;;;;;1.60;1.30;;;25.50;62.40;;;;;;5076524;28;20497;-86
2022/07/18 03:25:40;;;;;;;1.40;1.03;;;25.50;62.40;;;;;;5076138;28;20524;-85
2022/07/18 03:28:07;;;;;;;1.00;0.90;;;25.50;62.40;;;;;;5076739;28;20865;-87
2022/07/18 03:30:34;;;;;;;1.50;1.20;;;25.50;62.40;;;;;;5075841;28;20970;-85
2022/07/18 03:33:00;;;;;;;1.10;1.00;;;25.50;62.40;;;;;;5057887;28;20445;-86
2022/07/18 03:35:28;;;;;;;1.20;1.10;;;25.50;62.40;;;;;;5073938;28;20475;-86
2022/07/18 03:37:56;;;;;;;1.83;1.63;;;25.50;62.50;;;;;;5076276;28;20513;-86
2022/07/18 03:40:23;;;;;;;1.30;1.20;;;25.50;62.40;;;;;;5076246;28;20519;-86
2022/07/18 03:42:50;;;;;;;1.10;1.00;;;25.50;63.30;;;;;;5076095;28;20479;-86
2022/07/18 03:45:16;;;;;;;1.33;1.23;;;25.50;62.70;;;;;;5075749;28;20540;-86
2022/07/18 03:47:43;;;;;;;1.40;1.30;;;25.50;62.60;;;;;;5076175;28;20886;-86
2022/07/18 03:50:10;;;;;;;1.50;1.40;;;25.50;62.50;;;;;;5076013;28;20528;-86
2022/07/18 03:52:37;;;;;;;1.10;1.00;;;25.50;62.60;;;;;;5075386;28;20479;-86
2022/07/18 03:55:06;;;;;;;1.83;1.30;;;25.50;62.60;;;;;;5076162;28;20523;-85
2022/07/18 03:57:33;;;;;;;1.30;1.20;;;25.50;62.50;;;;;;5076333;28;20489;-85
2022/07/18 04:00:00;;;;;;;1.40;1.23;;;25.40;62.40;;;;;;5075641;28;20570;-86
2022/07/18 04:02:27;;;;;;;1.30;1.10;;;25.40;62.50;;;;;;5075400;28;20445;-85
2022/07/18 04:04:54;;;;;;;1.23;1.13;;;25.40;62.60;;;;;;5076019;28;20461;-85
2022/07/18 04:07:21;;;;;;;1.40;1.10;;;25.40;62.60;;;;;;5074845;28;21011;-87
2022/07/18 04:09:47;;;;;;;1.10;0.97;;;25.50;62.80;;;;;;5074790;28;20468;-86
2022/07/18 04:12:16;;;;;;;1.60;1.13;;;25.40;62.50;;;;;;5076139;28;20476;-86
2022/07/18 04:14:43;;;;;;;1.40;1.30;;;25.50;62.70;;;;;;5075596;28;20537;-87
2022/07/18 04:17:09;;;;;;;7.90;2.43;;;25.50;62.80;;;;;;5075651;28;20496;-86
2022/07/18 04:19:36;;;;;;;2.30;2.20;;;25.40;61.50;;;;;;5075914;28;20469;-87
2022/07/18 04:22:03;;;;;;;2.50;2.30;;;25.30;60.90;;;;;;5075608;28;20571;-87
2022/07/18 04:24:30;;;;;;;2.07;1.90;;;25.20;60.80;;;;;;5076284;28;20480;-88
2022/07/18 04:26:57;;;;;;;2.10;2.00;;;25.00;61.10;;;;;;5076187;28;20533;-88
2022/07/18 04:29:25;;;;;;;9.03;6.80;;;24.80;61.80;;;;;;5077722;28;20441;-88
2022/07/18 04:31:52;;;;;;;5.63;3.50;;;24.70;63.50;;;;;;5076629;28;20440;-88
2022/07/18 04:34:19;;;;;;;5.10;3.10;;;24.50;63.20;;;;;;5077046;28;20536;-88
2022/07/18 04:36:46;;;;;;;3.67;2.50;;;24.40;63.60;;;;;;5076757;28;20441;-88
2022/07/18 04:39:13;;;;;;;2.40;2.07;;;24.40;63.20;;;;;;5077365;28;20540;-89
2022/07/18 04:41:40;;;;;;;4.80;3.10;;;24.30;63.10;;;;;;5076157;28;20491;-89
2022/07/18 04:44:07;;;;;;;2.70;2.50;;;24.20;63.20;;;;;;5075860;28;20492;-88
2022/07/18 04:46:35;;;;;;;4.03;2.50;;;24.10;63.30;;;;;;5075215;28;20515;-89
2022/07/18 04:49:03;;;;;;;4.73;2.50;;;24.00;63.50;;;;;;5075457;28;20440;-89
2022/07/18 04:51:29;;;;;;;4.67;2.50;;;24.00;63.80;;;;;;5075181;28;20515;-88
2022/07/18 04:53:56;;;;;;;3.77;2.60;;;23.90;63.60;;;;;;5075145;28;20528;-88
2022/07/18 04:56:23;;;;;;;6.90;3.20;;;23.90;63.70;;;;;;5075008;28;20872;-89
2022/07/18 04:58:50;;;;;;;5.33;2.67;;;23.90;64.00;;;;;;5075035;28;20440;-89
2022/07/18 05:01:17;;;;;;;3.60;2.53;;;23.80;64.10;;;;;;5074831;28;20579;-89
2022/07/18 05:03:45;;;;;;;6.00;3.00;;;23.80;64.10;;;;;;5074885;28;20813;-88
2022/07/18 05:06:12;;;;;;;5.63;3.00;;;23.80;64.40;;;;;;5075119;28;20524;-88
2022/07/18 05:08:39;;;;;;;4.93;2.80;;;23.80;64.30;;;;;;5074880;28;20473;-88
2022/07/18 05:11:06;;;;;;;4.53;2.80;;;23.80;64.40;;;;;;5074900;28;20469;-89
2022/07/18 05:13:33;;;;;;;6.67;3.00;;;23.80;64.20;;;;;;5074579;28;20472;-88
2022/07/18 05:16:00;;;;;;;5.83;2.53;;;23.80;64.30;;;;;;5077560;28;20846;-88
2022/07/18 05:18:27;;;;;;;5.43;2.73;;;23.80;64.30;;;;;;5076920;28;20526;-89
2022/07/18 05:20:55;;;;;;;6.50;3.13;;;23.80;64.50;;;;;;5074579;28;20522;-88
2022/07/18 05:23:24;;;;;;;3.43;3.00;;;23.80;64.70;;;;;;5074572;28;20453;-88
2022/07/18 05:25:51;;;;;;;4.83;2.60;;;23.80;64.80;;;;;;5074365;28;20495;-88
2022/07/18 05:28:18;;;;;;;3.40;2.60;;;23.80;65.00;;;;;;5074546;28;20635;-89
2022/07/18 05:30:44;;;;;;;8.60;2.87;;;23.80;65.10;;;;;;5074526;28;20472;-89
2022/07/18 05:33:11;;;;;;;13.40;4.83;;;23.80;65.10;;;;;;5074382;28;20499;-89
2022/07/18 05:35:39;;;;;;;6.90;3.10;;;23.70;65.30;;;;;;5074163;28;20447;-89
2022/07/18 05:38:07;;;;;;;4.63;3.23;;;23.80;65.00;;;;;;5074580;28;20518;-89
2022/07/18 05:40:34;;;;;;;8.70;3.10;;;23.80;65.10;;;;;;5065385;28;20488;-87
2022/07/18 05:43:02;;;;;;;3.73;2.87;;;23.90;65.40;;;;;;5072760;28;20960;-87
2022/07/18 05:45:29;;;;;;;6.07;3.33;;;23.90;65.30;;;;;;5072501;28;20456;-88
2022/07/18 05:47:56;;;;;;;3.77;2.90;;;24.00;65.30;;;;;;5067525;28;20509;-88
2022/07/18 05:50:24;;;;;;;3.70;2.80;;;24.10;65.20;;;;;;5069969;28;20477;-87
2022/07/18 05:52:51;;;;;;;7.93;2.53;;;24.10;65.10;;;;;;5074770;28;20468;-86
2022/07/18 05:55:20;;;;;;;4.97;2.33;;;24.20;65.10;;;;;;5074328;28;20971;-86
2022/07/18 05:57:49;;;;;;;6.63;3.30;;;24.20;65.10;;;;;;5073907;28;20460;-86
2022/07/18 06:00:17;;;;;;;3.67;2.93;;;24.30;65.60;;;;;;5076230;28;20441;-85
2022/07/18 06:02:44;;;;;;;3.63;2.70;;;24.40;64.80;;;;;;5100475;28;20436;-87
2022/07/18 06:05:11;;;;;;;3.00;2.70;;;24.40;64.70;;;;;;5097091;28;20487;-92
2022/07/18 06:07:38;;;;;;;5.93;2.87;;;24.50;64.60;;;;;;5093801;28;20448;-86
2022/07/18 06:10:06;;;;;;;5.13;2.73;;;24.50;64.40;;;;;;5093320;28;20478;-86
2022/07/18 06:12:35;;;;;;;6.10;3.03;;;24.50;64.50;;;;;;5093539;28;20447;-86
2022/07/18 06:15:02;;;;;;;8.23;2.70;;;24.50;64.50;;;;;;5093478;28;20468;-86
2022/07/18 06:17:29;;;;;;;4.77;3.17;;;24.50;64.70;;;;;;5093643;28;20546;-86
2022/07/18 06:19:57;;;;;;;3.50;2.47;;;24.60;64.40;;;;;;5093735;28;20458;-86
2022/07/18 06:22:24;;;;;;;5.93;3.10;;;24.70;64.50;;;;;;5093693;28;20862;-87
2022/07/18 06:24:51;;;;;;;7.40;3.57;;;24.70;64.50;;;;;;5092837;28;20491;-86
2022/07/18 06:27:18;;;;;;;5.43;2.90;;;24.70;64.70;;;;;;5093561;28;20535;-86
2022/07/18 06:29:46;;;;;;;5.67;2.90;;;24.70;64.60;;;;;;5093606;28;20475;-86
2022/07/18 06:32:13;;;;;;;3.37;3.07;;;24.70;65.50;;;;;;5092490;28;20479;-87
2022/07/18 06:34:39;;;;;;;6.10;2.70;;;24.80;64.70;;;;;;5093516;28;20935;-84
2022/07/18 06:37:06;;;;;;;11.73;2.60;;;24.80;64.60;;;;;;5093691;28;20464;-91
2022/07/18 06:39:33;;;;;;;4.57;2.10;;;24.80;64.40;;;;;;5095039;28;20649;-89
2022/07/18 06:42:00;;;;;;;4.23;2.60;;;24.90;64.60;;;;;;5093356;28;20541;-85
2022/07/18 06:44:27;;;;;;;4.03;2.20;;;24.80;64.20;;;;;;5092603;28;20493;-87
2022/07/18 06:46:57;;;;;;;5.80;2.80;;;24.90;64.20;;;;;;5093020;28;20503;-92
2022/07/18 06:49:25;;;;;;;7.07;2.70;;;24.90;64.10;;;;;;5093536;28;20443;-87
2022/07/18 06:51:52;;;;;;;3.20;1.90;;;24.90;64.10;;;;;;5093345;28;20475;-89
2022/07/18 06:54:20;;;;;;;2.50;1.83;;;25.00;64.10;;;;;;5094497;28;20444;-91
2022/07/18 06:56:47;;;;;;;3.87;2.20;;;25.00;64.20;;;;;;5094179;28;20447;-88
2022/07/18 06:59:13;;;;;;;2.83;2.40;;;25.00;64.20;;;;;;5093517;28;20525;-89
2022/07/18 07:01:41;;;;;;;2.67;2.47;;;25.00;64.10;;;;;;5093771;28;20479;-89
2022/07/18 07:04:09;;;;;;;3.43;2.80;;;25.00;64.00;;;;;;5093395;28;20516;-90
2022/07/18 07:06:38;;;;;;;4.27;2.27;;;25.00;64.00;;;;;;5093797;28;20524;-89
2022/07/18 07:09:05;;;;;;;4.10;2.37;;;25.00;64.10;;;;;;5093438;28;20439;-91
2022/07/18 07:11:33;;;;;;;2.67;2.13;;;25.00;64.10;;;;;;5093820;28;20446;-93
2022/07/18 07:14:00;;;;;;;3.07;2.00;;;25.00;64.10;;;;;;5096121;28;20489;-95
2022/07/18 07:16:27;;;;;;;2.67;2.17;;;25.00;64.10;;;;;;5093561;28;20872;-91
2022/07/18 07:18:54;;;;;;;3.10;2.17;;;25.00;64.00;;;;;;5092618;28;20822;-90
2022/07/18 07:21:22;;;;;;;1.87;1.77;;;25.00;63.90;;;;;;5098440;28;20526;-88
2022/07/18 07:23:49;;;;;;;3.10;1.63;;;25.10;64.00;;;;;;5113794;28;20444;-91
2022/07/18 07:26:16;;;;;;;2.47;1.70;;;25.00;63.80;;;;;;5116682;28;20446;-92
2022/07/18 07:28:43;;;;;;;2.83;1.67;;;25.10;63.60;;;;;;5105380;28;20448;-92
2022/07/18 07:31:10;;;;;;;5.13;1.67;;;25.10;63.40;;;;;;5098610;28;20458;-92
2022/07/18 07:33:37;;;;;;;1.80;1.60;;;25.10;63.30;;;;;;5095757;28;20443;-91
2022/07/18 07:36:05;;;;;;;1.60;1.50;;;25.10;63.20;;;;;;5097066;28;20961;-91
2022/07/18 07:38:34;;;;;;;1.97;1.53;;;25.10;63.10;;;;;;5094696;28;20447;-93
2022/07/18 07:41:01;;;;;;;2.70;1.33;;;25.10;63.10;;;;;;5093737;28;20447;-91
2022/07/18 07:43:28;;;;;;;2.07;1.50;;;25.10;63.10;;;;;;5094128;28;20444;-92
2022/07/18 07:45:56;;;;;;;2.37;1.67;;;25.10;63.10;;;;;;5097131;28;20439;-92
2022/07/18 07:48:23;;;;;;;2.37;1.40;;;25.10;63.00;;;;;;5096073;28;20447;-91
2022/07/18 07:50:51;;;;;;;3.43;1.90;;;25.10;63.00;;;;;;5096188;28;20448;-92
2022/07/18 07:53:18;;;;;;;1.73;1.63;;;25.20;63.10;;;;;;5097143;28;20538;-91
2022/07/18 07:55:46;;;;;;;2.93;1.40;;;25.20;63.00;;;;;;5097405;28;20890;-92
2022/07/18 07:58:14;;;;;;;2.27;1.47;;;25.20;63.90;;;;;;5097200;28;20773;-91
2022/07/18 08:00:41;;;;;;;2.97;1.57;;;25.20;63.00;;;;;;5102251;28;20436;-92
2022/07/18 08:03:10;;;;;;;2.07;1.97;;;25.20;63.00;;;;;;5097210;28;20605;-92
2022/07/18 08:05:39;;;;;;;1.57;1.20;;;25.20;62.90;;;;;;5097182;28;20448;-91
2022/07/18 08:08:06;;;;;;;2.20;2.00;;;25.20;62.90;;;;;;5096605;28;20444;-92
2022/07/18 08:10:33;;;;;;;1.70;1.47;;;25.20;62.80;;;;;;5096693;28;20536;-92
2022/07/18 08:13:02;;;;;;;1.70;1.37;;;25.20;62.80;;;;;;5096722;28;20468;-92
2022/07/18 08:15:29;;;;;;;1.60;1.30;;;25.20;62.70;;;;;;5097247;28;20807;-92
2022/07/18 08:17:56;;;;;;;1.60;1.50;;;25.20;62.60;;;;;;5096633;28;20869;-92
2022/07/18 08:20:24;;;;;;;1.70;1.60;;;25.20;62.60;;;;;;5096567;28;20460;-92
2022/07/18 08:22:56;;;;;;;2.07;1.67;;;25.20;62.70;;;;;;5096281;28;20571;-92
2022/07/18 08:25:23;;;;;;;1.50;1.10;;;25.20;62.70;;;;;;5097678;28;20539;-92
2022/07/18 08:27:50;;;;;;;1.30;1.10;;;25.20;63.60;;;;;;5096443;28;20486;-92
2022/07/18 08:30:20;;;;;;;2.23;1.37;;;25.20;62.80;;;;;;5095960;28;20486;-92
2022/07/18 08:32:47;;;;;;;1.67;1.40;;;25.20;62.80;;;;;;5095946;28;20540;-92
2022/07/18 08:35:14;;;;;;;1.53;1.43;;;25.20;62.80;;;;;;5095918;28;20538;-92
2022/07/18 08:37:41;;;;;;;2.23;1.40;;;25.20;63.80;;;;;;5096136;28;20536;-91
2022/07/18 08:40:10;;;;;;;2.07;1.60;;;25.20;62.90;;;;;;5095987;28;20996;-91
2022/07/18 08:42:37;;;;;;;2.27;1.40;;;25.20;62.90;;;;;;5095978;28;20487;-92
2022/07/18 08:45:05;;;;;;;1.80;1.43;;;25.20;63.00;;;;;;5096190;28;20490;-91
2022/07/18 08:47:34;;;;;;;1.50;1.40;;;25.20;63.00;;;;;;5096393;28;20487;-91
2022/07/18 08:50:02;;;;;;;2.03;1.43;;;25.20;63.10;;;;;;5095944;28;20523;-92
2022/07/18 08:52:30;;;;;;;1.67;1.40;;;25.30;63.20;;;;;;5097034;28;20551;-91
2022/07/18 08:54:57;;;;;;;1.63;1.40;;;25.20;63.20;;;;;;5119564;28;20432;-90
2022/07/18 08:57:25;;;;;;;1.50;1.40;;;25.20;63.20;;;;;;5118263;28;20442;-91
2022/07/18 08:59:52;;;;;;;1.40;1.20;;;25.20;63.30;;;;;;5095626;28;20468;-91
2022/07/18 09:02:19;;;;;;;3.53;1.60;;;25.30;63.30;;;;;;5095807;28;20568;-92
2022/07/18 09:04:47;;;;;;;1.67;1.57;;;25.30;63.30;;;;;;5097259;28;20489;-91
2022/07/18 09:07:25;;;;;;;1.80;1.30;;;25.30;63.30;;;;;;5097733;28;20483;-91
2022/07/18 09:09:54;;;;;;;2.30;1.47;;;25.30;63.30;;;;;;5100970;28;20436;-90
2022/07/18 09:12:23;;;;;;;1.80;1.50;;;25.30;63.30;;;;;;5096018;28;20424;-92
2022/07/18 09:14:50;;;;;;;1.40;1.23;;;25.30;63.30;;;;;;5095852;28;20519;-92
2022/07/18 09:17:19;;;;;;;2.80;1.47;;;25.30;63.40;;;;;;5095473;28;20500;-92
2022/07/18 09:20:00;;;;;;;2.20;1.43;;;25.30;63.40;;;;;;5095215;28;20428;-92
2022/07/18 09:22:30;;;;;;;1.20;1.10;;;25.30;63.30;;;;;;5095110;28;20518;-92
2022/07/18 09:25:04;;;;;;;2.43;1.60;;;25.30;63.40;;;;;;5095076;28;20448;-92
2022/07/18 09:27:34;;;;;;;4.60;1.37;;;25.30;63.40;;;;;;5095515;28;20509;-91
2022/07/18 09:30:20;;;;;;;2.50;1.30;;;25.30;63.40;;;;;;5096953;28;20447;-91
2022/07/18 09:32:48;;;;;;;1.20;1.10;;;25.30;63.40;;;;;;5095225;28;20443;-91
2022/07/18 09:35:18;;;;;;;1.70;1.30;;;25.30;63.40;;;;;;5094673;28;21083;-91
2022/07/18 09:38:10;;;;;;;2.77;1.37;;;25.30;63.40;;;;;;5094535;28;21006;-91
2022/07/18 09:40:39;;;;;;;2.53;1.20;;;25.30;63.30;;;;;;5070880;28;20880;-92
2022/07/18 09:43:09;;;;;;;1.60;1.50;;;25.30;63.40;;;;;;5094421;28;20574;-91
2022/07/18 09:45:38;;;;;;;1.50;1.40;;;25.30;63.40;;;;;;5093967;28;20467;-91
2022/07/18 09:48:07;;;;;;;1.50;1.13;;;25.30;63.30;;;;;;5093869;28;20482;-91
2022/07/18 09:50:40;;;;;;;1.60;1.10;;;25.40;63.40;;;;;;5093910;28;20439;-91
2022/07/18 09:53:16;;;;;;;1.20;1.00;;;25.30;63.30;;;;;;5093879;28;20444;-90
2022/07/18 09:55:45;;;;;;;3.10;1.50;;;25.30;63.30;;;;;;5094295;28;20569;-90
2022/07/18 09:58:15;;;;;;;1.40;1.20;;;25.40;63.40;;;;;;5095066;28;20531;-90
2022/07/18 10:00:42;;;;;;;1.50;1.10;;;25.30;63.30;;;;;;5094179;28;20448;-93
2022/07/18 10:03:09;;;;;;;1.57;1.40;;;25.30;63.30;;;;;;5094976;28;20514;-93
2022/07/18 10:05:40;;;;;;;1.53;1.23;;;25.30;63.30;;;;;;5094076;28;20479;-92
2022/07/18 10:08:09;;;;;;;1.33;1.23;;;25.40;63.40;;;;;;5093670;28;20520;-91
2022/07/18 10:10:36;;;;;;;1.80;1.10;;;25.40;63.30;;;;;;5094270;28;20515;-92
2022/07/18 10:13:04;;;;;;;1.20;1.10;;;25.30;63.30;;;;;;5093975;28;20945;-90
2022/07/18 10:15:33;;;;;;;1.63;1.07;;;25.40;63.30;;;;;;5094189;28;20440;-91
2022/07/18 10:18:01;;;;;;;1.67;1.40;;;25.40;63.30;;;;;;5093633;28;20460;-92
2022/07/18 10:20:32;;;;;;;2.03;1.30;;;25.40;64.10;;;;;;5093995;28;20439;-92
2022/07/18 10:23:08;;;;;;;1.20;1.10;;;25.40;63.30;;;;;;5093972;28;20490;-91
2022/07/18 10:25:36;;;;;;;1.07;0.93;;;25.40;63.30;;;;;;5094029;28;20444;-91
2022/07/18 10:28:07;;;;;;;1.40;1.13;;;25.40;63.30;;;;;;5094151;28;20536;-91
2022/07/18 10:30:42;;;;;;;1.40;1.20;;;25.40;63.20;;;;;;5094256;28;20482;-91
2022/07/18 10:33:38;;;;;;;1.50;1.40;;;25.40;63.20;;;;;;5094429;28;20535;-91
2022/07/18 10:36:07;;;;;;;2.03;1.23;;;25.40;63.10;;;;;;5094101;28;20438;-92
2022/07/18 10:38:36;;;;;;;1.47;1.20;;;25.40;63.30;;;;;;5095075;28;20436;-91
2022/07/18 10:41:11;;;;;;;1.40;1.10;;;25.40;63.30;;;;;;5094087;28;20456;-90
2022/07/18 10:43:44;;;;;;;1.63;1.00;;;25.40;63.20;;;;;;5093521;28;20514;-89
2022/07/18 10:46:12;;;;;;;1.30;1.10;;;25.40;63.20;;;;;;5093929;28;20897;-88
2022/07/18 10:48:49;;;;;;;1.50;1.30;;;25.40;63.10;;;;;;5093483;28;20951;-91
2022/07/18 10:51:17;;;;;;;1.80;1.20;;;25.40;63.10;;;;;;5095073;28;21049;-89
2022/07/18 10:54:13;;;;;;;2.07;1.50;;;25.40;63.20;;;;;;5093539;28;20447;-89
2022/07/18 10:57:07;;;;;;;1.23;1.13;;;25.40;63.20;;;;;;5089437;28;21299;-90
2022/07/18 10:59:35;;;;;;;1.63;1.30;;;25.40;63.20;;;;;;5093230;28;20447;-89
2022/07/18 11:02:08;;;;;;;2.30;1.20;;;25.40;63.30;;;;;;5093534;28;20436;-90
2022/07/18 11:04:41;;;;;;;1.20;1.07;;;25.40;62.90;;;;;;5093081;28;20444;-90
2022/07/18 11:07:13;;;;;;;1.30;1.10;;;25.40;63.10;;;;;;5093703;28;20447;-90
2022/07/18 11:09:44;;;;;;;1.20;1.10;;;25.40;63.20;;;;;;5093818;28;20454;-90
2022/07/18 11:12:28;;;;;;;1.13;1.03;;;25.40;63.30;;;;;;5094218;28;20505;-88
2022/07/18 11:15:04;;;;;;;1.20;1.03;;;25.40;63.30;;;;;;5092983;28;20447;-89
2022/07/18 11:17:59;;;;;;;1.30;1.00;;;25.40;63.40;;;;;;5092995;28;20497;-89
2022/07/18 11:20:36;;;;;;;1.17;1.00;;;25.40;63.30;;;;;;5096868;28;20436;-88
2022/07/18 11:23:05;;;;;;;1.30;1.20;;;25.40;63.50;;;;;;5096989;28;20557;-88
2022/07/18 11:25:34;;;;;;;1.50;1.30;;;25.40;63.50;;;;;;5096807;28;20494;-88
2022/07/18 11:28:00;;;;;;;3.00;1.20;;;25.40;63.50;;;;;;5096639;28;20483;-88
2022/07/18 11:30:27;;;;;;;1.33;1.17;;;25.40;63.40;;;;;;5096965;28;20858;-88
2022/07/18 11:32:54;;;;;;;1.80;1.53;;;25.40;63.50;;;;;;5096772;28;20821;-89
2022/07/18 11:35:25;;;;;;;1.37;1.27;;;25.40;63.40;;;;;;5096648;28;20451;-89
2022/07/18 11:37:55;;;;;;;1.23;1.07;;;25.40;63.40;;;;;;5096887;28;20443;-93
2022/07/18 11:40:23;;;;;;;1.50;1.23;;;25.40;63.40;;;;;;5096517;28;20486;-92
2022/07/18 11:42:51;;;;;;;1.30;1.20;;;25.40;63.40;;;;;;5096628;28;20475;-88
2022/07/18 11:45:18;;;;;;;2.10;1.73;;;25.40;63.40;;;;;;5096440;28;20435;-89
2022/07/18 11:47:50;;;;;;;1.57;1.03;;;25.40;63.40;;;;;;5096670;28;20467;-88
2022/07/18 11:50:18;;;;;;;1.40;0.90;;;25.40;63.40;;;;;;5096384;28;20470;-88
2022/07/18 11:52:46;;;;;;;1.20;1.10;;;25.50;63.50;;;;;;5096730;28;20867;-89
2022/07/18 11:55:13;;;;;;;1.40;1.30;;;25.40;63.40;;;;;;5096616;28;20518;-89
2022/07/18 11:57:41;;;;;;;2.30;1.10;;;25.40;63.50;;;;;;5096387;28;20458;-88
2022/07/18 12:00:20;;;;;;;1.10;0.97;;;25.50;63.60;;;;;;5096132;28;20938;-89
2022/07/18 12:03:10;;;;;;;2.20;1.17;;;25.50;63.50;;;;;;5096268;28;20487;-88
2022/07/18 12:05:38;;;;;;;2.20;1.10;;;25.50;63.50;;;;;;5096053;28;20479;-88
2022/07/18 12:08:32;;;;;;;1.20;1.10;;;25.40;63.50;;;;;;5096122;28;20451;-88
2022/07/18 12:11:11;;;;;;;1.80;1.67;;;25.50;63.50;;;;;;5096294;28;20515;-88
2022/07/18 12:13:50;;;;;;;1.10;1.00;;;25.50;63.60;;;;;;5095889;28;20470;-89
2022/07/18 12:16:33;;;;;;;1.40;1.30;;;25.50;63.60;;;;;;5095723;28;20499;-89
2022/07/18 12:19:07;;;;;;;1.50;1.10;;;25.50;63.60;;;;;;5095715;28;20861;-89
2022/07/18 12:21:46;;;;;;;1.30;1.20;;;25.40;63.60;;;;;;5095541;28;20960;-89
2022/07/18 12:24:32;;;;;;;1.33;1.20;;;25.50;63.60;;;;;;5095913;28;20568;-88
2022/07/18 12:27:16;;;;;;;1.77;1.53;;;25.50;63.60;;;;;;5095662;28;20487;-88
2022/07/18 12:29:58;;;;;;;1.57;0.90;;;25.50;63.60;;;;;;5095058;28;20525;-88
2022/07/18 12:32:27;;;;;;;1.53;1.00;;;25.50;63.60;;;;;;5095825;28;20448;-88
2022/07/18 12:34:56;;;;;;;1.50;1.13;;;25.50;63.70;;;;;;5095902;28;20508;-88
2022/07/18 12:37:25;;;;;;;1.20;1.10;;;25.50;63.60;;;;;;5095730;28;20444;-89
2022/07/18 12:39:57;;;;;;;2.13;1.20;;;25.50;63.60;;;;;;5095819;28;20782;-88
2022/07/18 12:42:29;;;;;;;1.20;0.90;;;25.50;63.60;;;;;;5095284;28;20435;-88
2022/07/18 12:44:56;;;;;;;2.57;1.13;;;25.50;63.60;;;;;;5095601;28;20526;-88
2022/07/18 12:47:23;;;;;;;1.30;0.97;;;25.50;63.60;;;;;;5095394;28;20502;-89
2022/07/18 12:49:51;;;;;;;1.80;1.13;;;25.50;63.60;;;;;;5095531;28;20493;-92
2022/07/18 12:52:18;;;;;;;1.40;1.10;;;25.50;63.60;;;;;;5095267;28;20526;-91
2022/07/18 12:54:45;;;;;;;1.40;1.10;;;25.50;64.40;;;;;;5095398;28;20510;-90
2022/07/18 12:57:12;;;;;;;1.53;1.10;;;25.50;63.60;;;;;;5095403;28;20450;-88
2022/07/18 12:59:39;;;;;;;1.30;1.20;;;25.50;63.60;;;;;;5095058;28;20480;-89
2022/07/18 13:02:07;;;;;;;3.77;1.30;;;25.50;63.60;;;;;;5094933;28;20491;-91